createdAt,value
2022-08-01T00:01:22.654Z,6.90
2022-08-01T00:03:49.723Z,3.38
2022-08-01T00:06:16.643Z,5.88
2022-08-01T00:08:45.462Z,7.25
2022-08-01T00:11:12.435Z,5.35
2022-08-01T00:13:39.320Z,7.45
2022-08-01T00:16:06.371Z,6.13
2022-08-01T00:18:33.377Z,3.97
2022-08-01T00:21:01.308Z,5.38
2022-08-01T00:23:29.279Z,8.55
2022-08-01T00:25:56.185Z,6.22
2022-08-01T00:28:23.063Z,8.23
2022-08-01T00:30:50.049Z,7.10
2022-08-01T00:33:17.069Z,9.40
2022-08-01T00:35:45.416Z,6.68
2022-08-01T00:38:14.472Z,5.93
2022-08-01T00:40:41.508Z,9.25
2022-08-01T00:43:08.651Z,10.73
2022-08-01T00:45:36.620Z,8.80
2022-08-01T00:48:03.896Z,8.52
2022-08-01T00:50:31.216Z,11.77
2022-08-01T00:52:59.870Z,7.05
2022-08-01T00:55:28.441Z,8.60
2022-08-01T00:58:05.831Z,7.38
2022-08-01T01:00:53.231Z,8.45
2022-08-01T01:03:26.416Z,6.95
2022-08-01T01:06:41.399Z,8.60
2022-08-01T01:09:35.392Z,5.90
2022-08-01T01:12:23.265Z,9.80
2022-08-01T01:15:03.029Z,4.75
2022-08-01T01:17:51.094Z,8.70
2022-08-01T01:20:25.020Z,5.97
2022-08-01T01:23:13.172Z,7.53
2022-08-01T01:26:07.029Z,9.50
2022-08-01T01:28:47.529Z,8.77
2022-08-01T01:31:15.696Z,12.13
2022-08-01T01:33:45.352Z,11.10
2022-08-01T01:36:17.798Z,9.75
2022-08-01T01:38:48.614Z,10.95
2022-08-01T01:41:18.060Z,10.55
2022-08-01T01:43:47.259Z,11.63
2022-08-01T01:46:20.120Z,11.30
2022-08-01T01:48:48.693Z,10.52
2022-08-01T01:51:16.893Z,12.70
2022-08-01T01:53:45.475Z,13.68
2022-08-01T01:56:14.968Z,13.57
2022-08-01T01:58:44.458Z,17.77
2022-08-01T02:01:14.336Z,15.95
2022-08-01T02:03:44.368Z,15.98
2022-08-01T02:06:14.756Z,19.60
2022-08-01T02:08:43.535Z,19.95
2022-08-01T02:11:20.150Z,24.40
2022-08-01T02:14:03.821Z,23.55
2022-08-01T02:16:35.261Z,25.85
2022-08-01T02:19:05.481Z,21.50
2022-08-01T02:21:44.383Z,22.88
2022-08-01T02:24:30.526Z,21.63
2022-08-01T02:27:02.816Z,20.75
2022-08-01T02:30:15.455Z,24.63
2022-08-01T02:32:47.647Z,18.90
2022-08-01T02:35:23.242Z,19.27
2022-08-01T02:37:51.083Z,17.48
2022-08-01T02:40:19.244Z,25.98
2022-08-01T02:42:52.130Z,26.88
2022-08-01T02:45:21.832Z,28.70
2022-08-01T02:47:50.399Z,27.27
2022-08-01T02:50:19.047Z,27.40
2022-08-01T02:52:51.426Z,29.98
2022-08-01T02:57:52.220Z,27.33
2022-08-01T03:00:25.890Z,26.83
2022-08-01T03:02:56.036Z,25.40
2022-08-01T03:05:25.026Z,28.02
2022-08-01T03:07:56.111Z,28.75
2022-08-01T03:10:30.735Z,27.27
2022-08-01T03:13:01.372Z,25.98
2022-08-01T03:15:31.972Z,29.05
2022-08-01T03:18:01.891Z,26.33
2022-08-01T03:20:31.606Z,23.75
2022-08-01T03:23:00.906Z,26.50
2022-08-01T03:25:30.097Z,25.00
2022-08-01T03:28:00.315Z,26.25
2022-08-01T03:30:28.829Z,24.70
2022-08-01T03:32:56.591Z,23.48
2022-08-01T03:35:27.217Z,31.20
2022-08-01T03:38:15.800Z,28.38
2022-08-01T03:40:50.549Z,25.15
2022-08-01T03:43:21.541Z,30.40
2022-08-01T03:45:52.557Z,32.40
2022-08-01T03:48:22.414Z,30.88
2022-08-01T03:50:52.409Z,29.75
2022-08-01T03:53:26.825Z,29.98
2022-08-01T03:55:55.180Z,29.50
2022-08-01T03:58:23.496Z,27.70
2022-08-01T04:00:51.679Z,28.02
2022-08-01T04:03:19.171Z,33.15
2022-08-01T04:05:46.159Z,34.42
2022-08-01T04:08:13.111Z,33.08
2022-08-01T04:10:40.108Z,30.88
2022-08-01T04:13:07.005Z,38.78
2022-08-01T04:15:37.123Z,37.92
2022-08-01T04:18:04.155Z,38.72
2022-08-01T04:20:33.848Z,39.90
2022-08-01T04:23:03.404Z,39.78
2022-08-01T04:25:40.734Z,39.45
2022-08-01T04:28:18.439Z,35.42
2022-08-01T04:30:49.931Z,26.08
2022-08-01T04:33:19.145Z,29.88
2022-08-01T04:36:03.596Z,31.10
2022-08-01T04:38:38.638Z,22.48
2022-08-01T04:41:09.308Z,26.95
2022-08-01T04:43:38.427Z,26.33
2022-08-01T04:46:07.772Z,32.72
2022-08-01T04:48:37.542Z,29.05
2022-08-01T04:51:05.654Z,30.50
2022-08-01T04:53:33.529Z,30.02
2022-08-01T04:56:22.716Z,38.63
2022-08-01T04:59:09.776Z,40.22
2022-08-01T05:01:49.743Z,33.35
2022-08-01T05:04:16.720Z,37.15
2022-08-01T05:06:44.597Z,35.83
2022-08-01T05:09:11.476Z,37.00
2022-08-01T05:11:39.194Z,35.78
2022-08-01T05:14:07.632Z,31.63
2022-08-01T05:16:34.576Z,33.38
2022-08-01T05:19:01.449Z,29.00
2022-08-01T05:21:28.273Z,31.15
2022-08-01T05:23:55.104Z,33.55
2022-08-01T05:26:22.954Z,30.75
2022-08-01T05:28:50.255Z,36.92
2022-08-01T05:31:17.293Z,36.15
2022-08-01T05:33:44.769Z,28.73
2022-08-01T05:36:11.747Z,33.65
2022-08-01T05:38:39.699Z,28.73
2022-08-01T05:41:06.845Z,29.75
2022-08-01T05:43:33.790Z,30.63
2022-08-01T05:46:01.988Z,22.73
2022-08-01T05:48:28.904Z,22.67
2022-08-01T05:50:58.559Z,17.98
2022-08-01T05:53:26.767Z,18.30
2022-08-01T05:55:53.651Z,17.00
2022-08-01T05:58:20.621Z,20.60
2022-08-01T06:00:48.917Z,14.85
2022-08-01T06:03:15.901Z,14.10
2022-08-01T06:05:42.746Z,14.30
2022-08-01T06:08:12.788Z,14.50
2022-08-01T06:10:39.626Z,13.60
2022-08-01T06:13:07.036Z,12.45
2022-08-01T06:15:37.486Z,10.45
2022-08-01T06:18:05.742Z,11.80
2022-08-01T06:20:32.993Z,13.70
2022-08-01T06:23:01.106Z,12.63
2022-08-01T06:25:34.354Z,15.05
2022-08-01T06:28:01.670Z,14.35
2022-08-01T06:30:28.810Z,17.92
2022-08-01T06:32:59.552Z,14.57
2022-08-01T06:35:27.073Z,16.30
2022-08-01T06:37:55.083Z,12.82
2022-08-01T06:40:24.601Z,16.52
2022-08-01T06:42:51.701Z,16.20
2022-08-01T06:45:19.698Z,18.05
2022-08-01T06:47:50.519Z,12.23
2022-08-01T06:50:19.740Z,15.15
2022-08-01T06:52:46.693Z,18.58
2022-08-01T06:55:13.658Z,10.00
2022-08-01T06:57:51.696Z,12.85
2022-08-01T07:00:23.306Z,13.70
2022-08-01T07:02:55.573Z,9.27
2022-08-01T07:05:23.567Z,12.45
2022-08-01T07:07:50.812Z,13.63
2022-08-01T07:10:18.141Z,10.30
2022-08-01T07:12:47.115Z,10.48
2022-08-01T07:15:14.681Z,10.93
2022-08-01T07:17:45.201Z,8.77
2022-08-01T07:20:16.408Z,11.35
2022-08-01T07:22:43.643Z,11.37
2022-08-01T07:25:14.985Z,9.13
2022-08-01T07:27:42.934Z,9.48
2022-08-01T07:30:11.156Z,7.90
2022-08-01T07:32:38.235Z,8.25
2022-08-01T07:35:05.532Z,9.82
2022-08-01T07:37:45.556Z,7.03
2022-08-01T07:40:17.070Z,10.82
2022-08-01T07:42:46.066Z,9.48
2022-08-01T07:45:16.918Z,7.35
2022-08-01T07:47:43.977Z,7.32
2022-08-01T07:50:11.136Z,9.85
2022-08-01T07:52:38.086Z,7.80
2022-08-01T07:55:06.918Z,10.63
2022-08-01T07:57:33.848Z,9.57
2022-08-01T08:00:01.147Z,12.45
2022-08-01T08:02:33.681Z,9.75
2022-08-01T08:05:02.145Z,11.00
2022-08-01T08:07:29.045Z,8.32
2022-08-01T08:09:57.177Z,7.22
2022-08-01T08:12:28.687Z,11.13
2022-08-01T08:14:57.676Z,5.93
2022-08-01T08:17:26.245Z,7.15
2022-08-01T08:19:53.151Z,8.07
2022-08-01T08:22:22.151Z,6.40
2022-08-01T08:24:49.049Z,6.10
2022-08-01T08:27:16.507Z,5.43
2022-08-01T08:29:43.634Z,5.68
2022-08-01T08:32:12.099Z,7.32
2022-08-01T08:34:40.200Z,5.68
2022-08-01T08:37:08.354Z,5.95
2022-08-01T08:39:41.783Z,4.25
2022-08-01T08:42:12.891Z,4.18
2022-08-01T08:44:44.623Z,4.90
2022-08-01T08:47:20.135Z,7.40
2022-08-01T08:49:50.000Z,5.95
2022-08-01T08:52:20.745Z,17.77
2022-08-01T08:54:49.426Z,13.43
2022-08-01T08:57:17.071Z,5.18
2022-08-01T08:59:45.274Z,6.22
2022-08-01T09:02:13.415Z,4.57
2022-08-01T09:04:41.895Z,3.35
2022-08-01T09:07:09.736Z,5.43
2022-08-01T09:09:41.531Z,4.15
2022-08-01T09:12:09.559Z,2.72
2022-08-01T09:14:46.467Z,5.97
2022-08-01T09:17:13.780Z,3.67
2022-08-01T09:19:42.111Z,2.60
2022-08-01T09:22:13.094Z,2.63
2022-08-01T09:24:41.627Z,2.22
2022-08-01T09:27:24.211Z,2.38
2022-08-01T09:30:00.464Z,2.72
2022-08-01T09:32:35.853Z,3.55
2022-08-01T09:35:31.092Z,4.97
2022-08-01T09:38:24.491Z,4.47
2022-08-01T09:40:55.697Z,2.88
2022-08-01T09:43:28.112Z,7.35
2022-08-01T09:48:28.690Z,3.67
2022-08-01T09:51:07.085Z,4.95
2022-08-01T09:53:52.540Z,2.65
2022-08-01T09:56:22.730Z,4.25
2022-08-01T09:59:01.083Z,2.83
2022-08-01T10:01:45.043Z,2.10
2022-08-01T10:04:18.569Z,3.85
2022-08-01T10:06:50.616Z,2.00
2022-08-01T10:12:15.090Z,3.70
2022-08-01T10:14:46.986Z,1.55
2022-08-01T10:17:20.834Z,5.30
2022-08-01T10:19:51.535Z,2.53
2022-08-01T10:22:25.284Z,3.20
2022-08-01T10:24:56.601Z,3.60
2022-08-01T10:27:38.406Z,4.60
2022-08-01T10:30:19.994Z,3.25
2022-08-01T10:32:54.974Z,4.80
2022-08-01T10:35:45.810Z,5.55
2022-08-01T10:38:14.166Z,2.60
2022-08-01T10:40:42.797Z,3.38
2022-08-01T10:43:12.475Z,1.95
2022-08-01T10:45:41.193Z,4.70
2022-08-01T10:48:36.289Z,3.05
2022-08-01T10:51:17.816Z,2.25
2022-08-01T10:53:54.322Z,3.03
2022-08-01T10:56:27.147Z,3.33
2022-08-01T10:59:06.552Z,4.65
2022-08-01T11:01:45.555Z,2.90
2022-08-01T11:04:21.835Z,3.58
2022-08-01T11:07:10.051Z,5.35
2022-08-01T11:10:00.155Z,1.92
2022-08-01T11:12:46.655Z,3.30
2022-08-01T11:18:37.531Z,2.60
2022-08-01T11:21:59.378Z,1.77
2022-08-01T11:23:59.711Z,1.55
2022-08-01T11:30:13.284Z,3.13
2022-08-01T11:33:10.467Z,3.15
2022-08-01T11:36:12.886Z,3.90
2022-08-01T11:39:13.824Z,3.25
2022-08-01T11:41:44.955Z,5.38
2022-08-01T11:44:30.504Z,3.75
2022-08-01T11:47:11.612Z,1.75
2022-08-01T11:49:49.259Z,5.10
2022-08-01T11:52:43.176Z,4.53
2022-08-01T11:55:11.850Z,9.02
2022-08-01T11:57:46.091Z,3.92
2022-08-01T12:02:47.046Z,1.27
2022-08-01T12:05:17.617Z,5.18
2022-08-01T12:07:49.241Z,4.40
2022-08-01T12:10:19.251Z,3.70
2022-08-01T12:12:51.672Z,1.60
2022-08-01T12:15:23.731Z,2.22
2022-08-01T12:20:32.621Z,4.20
2022-08-01T12:23:04.295Z,6.85
2022-08-01T12:25:31.483Z,5.95
2022-08-01T12:28:03.689Z,4.82
2022-08-01T12:30:36.458Z,2.08
2022-08-01T12:33:09.326Z,1.60
2022-08-01T12:35:39.835Z,2.00
2022-08-01T12:38:28.904Z,2.10
2022-08-01T12:40:56.625Z,2.75
2022-08-01T12:43:29.508Z,2.85
2022-08-01T12:46:01.169Z,3.38
2022-08-01T12:48:31.503Z,3.78
2022-08-01T12:51:02.044Z,1.65
2022-08-01T12:53:40.306Z,4.18
2022-08-01T12:56:09.156Z,3.60
2022-08-01T12:58:36.475Z,2.33
2022-08-01T13:01:07.265Z,3.25
2022-08-01T13:03:34.885Z,5.63
2022-08-01T13:06:01.943Z,3.70
2022-08-01T13:08:34.470Z,4.65
2022-08-01T13:11:06.369Z,2.10
2022-08-01T13:13:51.255Z,2.25
2022-08-01T13:16:31.258Z,4.50
2022-08-01T13:19:08.023Z,2.40
2022-08-01T13:21:53.031Z,4.03
2022-08-01T13:24:25.303Z,3.03
2022-08-01T13:26:54.222Z,1.73
2022-08-01T13:29:24.034Z,3.80
2022-08-01T13:31:51.476Z,2.65
2022-08-01T13:34:18.419Z,4.78
2022-08-01T13:36:49.438Z,6.32
2022-08-01T13:39:35.279Z,2.73
2022-08-01T13:42:03.691Z,3.60
2022-08-01T13:44:31.490Z,2.92
2022-08-01T13:46:58.360Z,7.60
2022-08-01T13:49:25.248Z,6.15
2022-08-01T13:52:07.557Z,3.22
2022-08-01T13:54:37.405Z,4.95
2022-08-01T13:57:04.631Z,4.15
2022-08-01T13:59:32.590Z,3.65
2022-08-01T14:01:59.461Z,2.10
2022-08-01T14:04:26.295Z,1.52
2022-08-01T14:06:54.302Z,4.22
2022-08-01T14:09:24.675Z,1.92
2022-08-01T14:11:53.058Z,4.30
2022-08-01T14:14:20.182Z,5.00
2022-08-01T14:16:47.995Z,5.20
2022-08-01T14:19:17.704Z,5.32
2022-08-01T14:21:47.304Z,3.13
2022-08-01T14:24:14.242Z,2.00
2022-08-01T14:26:43.645Z,4.28
2022-08-01T14:29:10.618Z,2.92
2022-08-01T14:31:37.604Z,8.15
2022-08-01T14:34:04.549Z,4.13
2022-08-01T14:36:38.106Z,6.85
2022-08-01T14:39:05.817Z,2.00
2022-08-01T14:41:35.750Z,5.65
2022-08-01T14:44:03.360Z,2.28
2022-08-01T14:46:31.642Z,1.77
2022-08-01T14:49:01.381Z,2.80
2022-08-01T14:51:28.361Z,2.13
2022-08-01T14:53:55.384Z,2.78
2022-08-01T14:56:23.246Z,4.30
2022-08-01T14:58:50.219Z,2.30
2022-08-01T15:01:19.042Z,4.25
2022-08-01T15:03:47.452Z,1.58
2022-08-01T15:06:15.517Z,2.90
2022-08-01T15:08:42.502Z,2.53
2022-08-01T15:11:09.772Z,4.05
2022-08-01T15:13:42.167Z,2.08
2022-08-01T15:16:09.698Z,4.95
2022-08-01T15:18:39.193Z,3.25
2022-08-01T15:21:07.254Z,3.25
2022-08-01T15:23:34.080Z,2.80
2022-08-01T15:26:01.026Z,3.47
2022-08-01T15:28:27.916Z,3.05
2022-08-01T15:30:54.769Z,2.97
2022-08-01T15:33:22.762Z,3.40
2022-08-01T15:35:53.011Z,2.50
2022-08-01T15:38:20.410Z,2.17
2022-08-01T15:40:47.395Z,2.50
2022-08-01T15:43:15.916Z,2.80
2022-08-01T15:45:47.718Z,1.65
2022-08-01T15:48:16.385Z,2.15
2022-08-01T15:50:44.641Z,5.10
2022-08-01T15:53:13.722Z,3.45
2022-08-01T15:55:40.690Z,1.85
2022-08-01T15:58:11.499Z,2.83
2022-08-01T16:00:40.262Z,3.15
2022-08-01T16:03:10.473Z,2.28
2022-08-01T16:05:42.954Z,2.97
2022-08-01T16:08:14.227Z,5.80
2022-08-01T16:10:42.026Z,8.30
2022-08-01T16:13:09.781Z,2.35
2022-08-01T16:15:38.054Z,3.15
2022-08-01T16:18:06.901Z,5.43
2022-08-01T16:20:35.690Z,1.63
2022-08-01T16:23:02.769Z,3.42
2022-08-01T16:25:29.642Z,4.55
2022-08-01T16:27:57.679Z,3.30
2022-08-01T16:30:24.727Z,2.33
2022-08-01T16:32:59.180Z,3.85
2022-08-01T16:35:35.854Z,2.25
2022-08-01T16:38:09.565Z,1.05
2022-08-01T16:40:47.748Z,3.50
2022-08-01T16:43:19.230Z,3.80
2022-08-01T16:45:58.783Z,2.70
2022-08-01T16:48:27.113Z,1.85
2022-08-01T16:50:54.978Z,4.60
2022-08-01T16:53:23.359Z,1.73
2022-08-01T16:55:51.051Z,2.50
2022-08-01T16:58:27.562Z,3.05
2022-08-01T17:01:59.697Z,4.68
2022-08-01T17:03:52.389Z,3.58
2022-08-01T17:06:22.666Z,7.57
2022-08-01T17:08:50.243Z,7.78
2022-08-01T17:11:17.251Z,4.13
2022-08-01T17:13:44.397Z,3.72
2022-08-01T17:16:11.934Z,3.53
2022-08-01T17:18:40.234Z,2.00
2022-08-01T17:21:09.945Z,4.57
2022-08-01T17:23:37.465Z,2.45
2022-08-01T17:26:05.579Z,3.00
2022-08-01T17:28:33.538Z,3.85
2022-08-01T17:31:03.626Z,2.40
2022-08-01T17:33:44.587Z,4.35
2022-08-01T17:36:17.620Z,3.22
2022-08-01T17:38:46.996Z,4.05
2022-08-01T17:41:15.113Z,2.90
2022-08-01T17:43:42.253Z,4.45
2022-08-01T17:46:10.311Z,1.83
2022-08-01T17:48:37.337Z,3.53
2022-08-01T17:51:06.979Z,2.88
2022-08-01T17:53:57.450Z,4.22
2022-08-01T17:56:26.538Z,3.92
2022-08-01T17:58:56.665Z,3.03
2022-08-01T18:01:28.583Z,3.40
2022-08-01T18:03:57.464Z,2.45
2022-08-01T18:06:26.410Z,4.10
2022-08-01T18:08:56.587Z,4.32
2022-08-01T18:11:27.906Z,6.63
2022-08-01T18:13:59.771Z,3.20
2022-08-01T18:16:27.293Z,2.38
2022-08-01T18:18:55.939Z,4.82
2022-08-01T18:21:22.895Z,4.80
2022-08-01T18:23:52.912Z,5.68
2022-08-01T18:26:23.086Z,6.47
2022-08-01T18:28:53.302Z,4.25
2022-08-01T18:31:21.746Z,2.58
2022-08-01T18:33:56.468Z,2.97
2022-08-01T18:36:33.014Z,3.80
2022-08-01T18:39:10.352Z,5.57
2022-08-01T18:41:40.263Z,2.60
2022-08-01T18:44:10.177Z,5.57
2022-08-01T18:46:38.810Z,3.38
2022-08-01T18:49:07.858Z,4.80
2022-08-01T18:51:43.954Z,4.63
2022-08-01T18:54:13.701Z,2.70
2022-08-01T18:56:43.146Z,2.92
2022-08-01T18:59:10.978Z,3.85
2022-08-01T19:01:39.705Z,3.72
2022-08-01T19:04:07.208Z,4.63
2022-08-01T19:06:34.395Z,8.10
2022-08-01T19:09:02.834Z,4.60
2022-08-01T19:11:31.611Z,2.15
2022-08-01T19:14:00.557Z,2.70
2022-08-01T19:16:29.782Z,2.60
2022-08-01T19:18:56.755Z,2.45
2022-08-01T19:21:25.932Z,4.88
2022-08-01T19:24:11.590Z,6.78
2022-08-01T19:26:40.390Z,3.38
2022-08-01T19:29:15.304Z,5.68
2022-08-01T19:31:46.979Z,9.45
2022-08-01T19:34:18.249Z,4.38
2022-08-01T19:36:47.679Z,3.60
2022-08-01T19:39:16.938Z,2.25
2022-08-01T19:41:48.451Z,5.00
2022-08-01T19:44:17.916Z,3.30
2022-08-01T19:46:45.487Z,6.53
2022-08-01T19:49:22.335Z,5.60
2022-08-01T19:51:52.488Z,5.25
2022-08-01T19:54:25.922Z,7.32
2022-08-01T19:56:54.061Z,3.72
2022-08-01T20:02:29.964Z,4.32
2022-08-01T20:05:00.669Z,4.40
2022-08-01T20:07:32.676Z,3.67
2022-08-01T20:10:00.295Z,3.60
2022-08-01T20:12:28.805Z,7.25
2022-08-01T20:14:56.203Z,4.32
2022-08-01T20:17:25.078Z,7.50
2022-08-01T20:19:52.095Z,6.22
2022-08-01T20:22:25.474Z,4.72
2022-08-01T20:24:57.672Z,5.03
2022-08-01T20:27:27.363Z,7.07
2022-08-01T20:30:01.559Z,7.03
2022-08-01T20:32:34.228Z,10.45
2022-08-01T20:35:06.756Z,6.63
2022-08-01T20:38:05.763Z,6.18
2022-08-01T20:40:28.176Z,6.78
2022-08-01T20:42:57.089Z,8.35
2022-08-01T20:45:27.306Z,6.32
2022-08-01T20:47:55.810Z,9.55
2022-08-01T20:50:53.006Z,5.25
2022-08-01T20:53:23.730Z,7.20
2022-08-01T20:55:59.487Z,7.43
2022-08-01T20:58:44.814Z,4.93
2022-08-01T21:01:15.549Z,5.22
2022-08-01T21:04:23.218Z,6.97
2022-08-01T21:06:55.391Z,5.28
2022-08-01T21:09:24.300Z,4.95
2022-08-01T21:12:02.581Z,4.68
2022-08-01T21:14:55.495Z,5.10
2022-08-01T21:17:38.776Z,5.25
2022-08-01T21:20:08.235Z,4.20
2022-08-01T21:22:51.793Z,4.50
2022-08-01T21:25:26.688Z,9.20
2022-08-01T21:27:55.389Z,5.47
2022-08-01T21:30:25.464Z,6.88
2022-08-01T21:32:54.348Z,7.80
2022-08-01T21:35:23.832Z,5.95
2022-08-01T21:37:52.305Z,5.18
2022-08-01T21:40:24.062Z,9.30
2022-08-01T21:42:52.527Z,6.15
2022-08-01T21:45:25.344Z,5.45
2022-08-01T21:47:53.102Z,8.93
2022-08-01T21:50:22.370Z,7.97
2022-08-01T21:53:05.074Z,7.50
2022-08-01T21:55:52.122Z,6.40
2022-08-01T21:58:23.961Z,7.55
2022-08-01T22:01:01.752Z,6.53
2022-08-01T22:03:43.437Z,5.93
2022-08-01T22:06:16.275Z,4.65
2022-08-01T22:08:54.657Z,8.55
2022-08-01T22:11:33.994Z,4.50
2022-08-01T22:14:06.181Z,10.35
2022-08-01T22:16:34.660Z,8.82
2022-08-01T22:19:03.127Z,9.82
2022-08-01T22:21:30.487Z,7.95
2022-08-01T22:23:59.234Z,7.78
2022-08-01T22:26:29.664Z,8.43
2022-08-01T22:28:59.920Z,6.97
2022-08-01T22:31:27.576Z,7.25
2022-08-01T22:33:56.328Z,6.13
2022-08-01T22:36:23.849Z,6.50
2022-08-01T22:38:52.045Z,9.13
2022-08-01T22:41:27.916Z,6.30
2022-08-01T22:44:09.405Z,7.95
2022-08-01T22:47:03.456Z,8.10
2022-08-01T22:49:55.389Z,10.70
2022-08-01T22:52:29.656Z,5.82
2022-08-01T22:55:12.091Z,6.47
2022-08-01T22:57:51.333Z,6.25
2022-08-01T23:00:18.848Z,7.03
2022-08-01T23:02:48.380Z,5.32
2022-08-01T23:05:21.889Z,8.35
2022-08-01T23:07:55.089Z,11.75
2022-08-01T23:10:24.069Z,5.65
2022-08-01T23:12:53.474Z,8.00
2022-08-01T23:15:23.236Z,7.07
2022-08-01T23:17:50.618Z,4.95
2022-08-01T23:20:18.969Z,9.23
2022-08-01T23:22:49.273Z,5.43
2022-08-01T23:25:17.718Z,5.95
2022-08-01T23:27:55.945Z,7.03
2022-08-01T23:30:33.675Z,6.10
2022-08-01T23:33:01.883Z,10.00
2022-08-01T23:35:29.686Z,8.30
2022-08-01T23:38:01.908Z,7.63
2022-08-01T23:40:34.083Z,6.93
2022-08-01T23:43:02.474Z,6.53
2022-08-01T23:46:01.713Z,9.23
2022-08-01T23:48:18.308Z,10.23
2022-08-01T23:50:45.727Z,9.05
2022-08-01T23:53:14.182Z,8.95
2022-08-01T23:55:44.427Z,8.57
2022-08-01T23:58:11.740Z,7.95
